Acme, PA (15610)

12:32 AM EDT on September 01, 2015 (GMT -0400)
Mount Joy | | Change Station
CLOSE
Current Station
Personal Weather Station
Location: Mount Pleasant, PA
Elevation: 1158 ft
Nearby Weather Stations

Elev 1158 ft 40.15 °N, 79.50 °W | Updated 49 seconds ago

Clear
Clear
73.2 °F
Feels Like 73 °F
N
0.0
Wind Variable Wind from SE
Gusts 0.0 mph

Today
High -- | Low -- °F
--% Chance of Precip.
Yesterday
High -- | Low -- °F
Precip. -- in
6:45 AM 7:49 PM
Waning Gibbous, 91% visible
Pressure 30.10 in
Visibility 10.0 miles
Clouds Scattered Clouds 6000 ft
Heat Index 73 °F
Dew Point 67 °F
Humidity 80%
Rainfall 0.00 in
Snow Depth Not available.
UV 0.0 out of 12
Pollen 10.50 out of 12
Air Quality Not available.
Flu Activity Not available.
METAR KLBE 010150Z 00000KT 10SM SCT060 22/19 A3010 RMK LAST
Pressure 30.10 in
Visibility 10.0 miles
Clouds Scattered Clouds 6000 ft
Heat Index 73 °F
Dew Point 67 °F
Humidity 80%
Rainfall 0.00 in
Snow Depth Not available.
UV 0.0 out of 12
Pollen 10.50 out of 12
Air Quality Not available.
Flu Activity Not available.
METAR KLBE 010150Z 00000KT 10SM SCT060 22/19 A3010 RMK LAST

10-Day Weather Forecast

×

Almanac

Astronomy

Sep. 01, 2015 Rise Set
Actual Time
Civil Twilight
Nautical Twilight
Astronomical Twilight
Moon
Length of Visible Light
Length of Day
Tomorrow will be .
, % of the Moon is Illuminated

Today's Extremes

State Highs State Lows

Community

WunderPhotos

Upload Photos

1,851,479 photos uploaded!

WunderBlogs® & News

Nearby

Air Quality

  Air Quality AQ Index Pollutant
Not available.

Snow Depth

Station Depth Elevation

Earthquake Activity

City Distance Mag. Time & Date
Minimum magnitude displayed is 2.5.

Coastal Water Temperatures

Place Temperature

Stations

Nearby Weather Stations

Station Location Temp. Windchill Dew Point Humidity Wind Precip. Elev Updated Type